Archival Weather

Aeroparque Jorge Newbery

Aeroparque Jorge Newbery, Argentina (SABE)

Report from: Saturday, May 14, 2022 2:00 PM -03
Current time: Sunday, June 26, 2022 1:43 PM -03

Current weather
Weather history
Weather forecast

Temperature18.0°C (64.4°F)
Dew point12.0°C (53.6°F)
Winds 6 kts (3.1 m/s, 6.9 mph) Vrb
Winds variableWinds variable from North (10°) to South-Southeast (150°)
Clouds Sky clear
Altimeter30.06 in.Hg (1018 mB)
Relative humidity68 %
Density altitude389 ft. (119 m)
Remarks Ceiling and visibility OK
Corrected report
No significant changes expected in the next two hours
Flight conditions Visual Meteorological Conditions
Raw dataCOR SABE 141700Z 06006KT 150V010 CAVOK 18/12 Q1018 NOSIG
An error has occurred. This application may no longer respond until reloaded. Reload 🗙